createdAt,value
2023-04-18T00:00:43.004Z,11.60
2023-04-18T00:03:09.804Z,12.98
2023-04-18T00:05:36.717Z,12.18
2023-04-18T00:08:11.662Z,14.85
2023-04-18T00:10:38.287Z,13.75
2023-04-18T00:13:05.284Z,14.50
2023-04-18T00:15:32.328Z,12.63
2023-04-18T00:18:00.774Z,13.80
2023-04-18T00:20:27.512Z,10.73
2023-04-18T00:22:54.938Z,10.27
2023-04-18T00:25:21.729Z,14.13
2023-04-18T00:27:48.353Z,14.20
2023-04-18T00:30:15.411Z,13.50
2023-04-18T00:32:42.069Z,14.38
2023-04-18T00:35:09.009Z,14.55
2023-04-18T00:37:35.838Z,14.55
2023-04-18T00:40:02.598Z,14.57
2023-04-18T00:42:29.387Z,10.48
2023-04-18T00:44:56.161Z,10.77
2023-04-18T00:47:22.979Z,10.38
2023-04-18T00:49:49.875Z,13.45
2023-04-18T00:52:17.496Z,13.65
2023-04-18T00:54:44.662Z,12.88
2023-04-18T00:57:12.196Z,13.95
2023-04-18T00:59:39.167Z,14.52
2023-04-18T01:02:06.211Z,11.48
2023-04-18T01:04:33.569Z,12.05
2023-04-18T01:07:02.124Z,11.45
2023-04-18T01:09:29.138Z,14.65
2023-04-18T01:11:55.918Z,10.93
2023-04-18T01:14:23.375Z,12.25
2023-04-18T01:16:49.960Z,18.75
2023-04-18T01:19:17.429Z,12.02
2023-04-18T01:21:44.451Z,12.48
2023-04-18T01:24:13.922Z,13.73
2023-04-18T01:26:43.525Z,13.63
2023-04-18T01:29:10.573Z,13.48
2023-04-18T01:31:38.507Z,14.82
2023-04-18T01:34:06.255Z,15.07
2023-04-18T01:36:33.449Z,14.63
2023-04-18T01:39:00.617Z,12.48
2023-04-18T01:41:29.675Z,12.77
2023-04-18T01:43:56.494Z,13.00
2023-04-18T01:46:23.302Z,12.77
2023-04-18T01:48:50.152Z,13.73
2023-04-18T01:51:16.816Z,13.88
2023-04-18T01:53:43.481Z,11.85
2023-04-18T01:56:10.366Z,12.90
2023-04-18T01:58:37.507Z,14.25
2023-04-18T02:01:04.312Z,10.27
2023-04-18T02:03:31.162Z,12.27
2023-04-18T02:05:58.099Z,13.02
2023-04-18T02:08:24.845Z,12.48
2023-04-18T02:10:51.532Z,14.40
2023-04-18T02:13:18.311Z,11.88
2023-04-18T02:15:49.025Z,16.15
2023-04-18T02:18:17.245Z,15.20
2023-04-18T02:20:45.013Z,15.43
2023-04-18T02:23:11.828Z,15.30
2023-04-18T02:25:38.463Z,12.77
2023-04-18T02:28:05.202Z,13.40
2023-04-18T02:30:31.774Z,15.55
2023-04-18T02:32:58.318Z,14.95
2023-04-18T02:35:26.026Z,15.85
2023-04-18T02:37:52.802Z,16.90
2023-04-18T02:40:19.754Z,13.77
2023-04-18T02:42:46.737Z,14.25
2023-04-18T02:45:13.327Z,18.33
2023-04-18T02:47:53.655Z,19.45
2023-04-18T02:50:20.917Z,17.73
2023-04-18T02:52:47.505Z,18.20
2023-04-18T02:55:14.297Z,20.52
2023-04-18T02:57:40.882Z,19.38
2023-04-18T03:00:08.652Z,21.63
2023-04-18T03:02:35.647Z,20.60
2023-04-18T03:05:02.772Z,22.25
2023-04-18T03:07:30.698Z,20.17
2023-04-18T03:09:57.426Z,20.67
2023-04-18T03:12:24.178Z,20.05
2023-04-18T03:14:50.868Z,24.65
2023-04-18T03:17:18.114Z,22.23
2023-04-18T03:19:46.264Z,22.85
2023-04-18T03:22:14.167Z,25.40
2023-04-18T03:24:40.925Z,23.17
2023-04-18T03:27:07.605Z,23.50
2023-04-18T03:29:34.498Z,23.27
2023-04-18T03:32:01.146Z,24.38
2023-04-18T03:34:27.981Z,24.90
2023-04-18T03:36:54.624Z,22.67
2023-04-18T03:39:21.295Z,23.23
2023-04-18T03:41:48.007Z,22.27
2023-04-18T03:44:14.936Z,24.13
2023-04-18T03:46:42.095Z,24.67
2023-04-18T03:49:08.805Z,24.48
2023-04-18T03:51:47.612Z,21.48
2023-04-18T03:54:15.267Z,22.92
2023-04-18T03:56:42.489Z,23.35
2023-04-18T03:59:09.569Z,21.88
2023-04-18T04:01:36.482Z,24.42
2023-04-18T04:04:04.220Z,30.63
2023-04-18T04:06:32.061Z,20.83
2023-04-18T04:08:58.714Z,24.80
2023-04-18T04:11:25.491Z,24.17
2023-04-18T04:13:52.147Z,23.90
2023-04-18T04:16:19.020Z,25.05
2023-04-18T04:18:45.706Z,23.73
2023-04-18T04:21:12.542Z,27.70
2023-04-18T04:23:41.906Z,25.75
2023-04-18T04:26:09.127Z,26.17
2023-04-18T04:28:36.020Z,27.02
2023-04-18T04:31:06.502Z,26.23
2023-04-18T04:33:35.499Z,27.83
2023-04-18T04:36:02.232Z,27.52
2023-04-18T04:38:30.747Z,29.50
2023-04-18T04:40:58.194Z,26.25
2023-04-18T04:43:25.936Z,24.90
2023-04-18T04:45:53.606Z,28.20
2023-04-18T04:48:21.939Z,26.85
2023-04-18T04:50:57.067Z,25.27
2023-04-18T04:55:53.203Z,26.15
2023-04-18T04:58:22.562Z,22.58
2023-04-18T05:00:50.785Z,24.85
2023-04-18T05:03:17.877Z,26.65
2023-04-18T05:05:45.286Z,23.55
2023-04-18T05:08:11.905Z,22.90
2023-04-18T05:10:38.549Z,23.40
2023-04-18T05:13:05.382Z,21.42
2023-04-18T05:15:32.596Z,21.95
2023-04-18T05:17:59.443Z,19.02
2023-04-18T05:20:26.084Z,20.67
2023-04-18T05:22:52.749Z,19.45
2023-04-18T05:25:19.710Z,19.13
2023-04-18T05:27:47.014Z,20.60
2023-04-18T05:30:14.167Z,21.55
2023-04-18T05:32:40.912Z,19.02
2023-04-18T05:35:08.316Z,18.73
2023-04-18T05:37:35.176Z,16.88
2023-04-18T05:40:01.935Z,17.35
2023-04-18T05:42:28.601Z,16.98
2023-04-18T05:44:55.354Z,17.08
2023-04-18T05:47:23.971Z,15.40
2023-04-18T05:49:50.675Z,18.98
2023-04-18T05:52:17.213Z,15.30
2023-04-18T05:54:43.832Z,17.33
2023-04-18T05:57:10.901Z,19.95
2023-04-18T05:59:37.675Z,17.67
2023-04-18T06:02:04.420Z,16.55
2023-04-18T06:04:31.318Z,18.73
2023-04-18T06:06:58.280Z,15.25
2023-04-18T06:09:25.030Z,14.65
2023-04-18T06:11:51.806Z,15.43
2023-04-18T06:14:18.507Z,13.43
2023-04-18T06:16:45.198Z,16.65
2023-04-18T06:19:11.845Z,15.13
2023-04-18T06:21:39.408Z,13.75
2023-04-18T06:24:06.641Z,14.48
2023-04-18T06:26:33.315Z,17.10
2023-04-18T06:28:59.933Z,15.05
2023-04-18T06:31:26.741Z,14.95
2023-04-18T06:33:53.398Z,15.07
2023-04-18T06:36:20.139Z,15.02
2023-04-18T06:38:46.860Z,18.95
2023-04-18T06:41:17.042Z,17.73
2023-04-18T06:43:52.386Z,16.65
2023-04-18T06:46:29.372Z,24.08
2023-04-18T06:48:56.288Z,16.27
2023-04-18T06:51:23.203Z,15.65
2023-04-18T06:53:52.629Z,15.20
2023-04-18T06:56:20.504Z,12.27
2023-04-18T06:58:47.535Z,14.75
2023-04-18T07:01:14.504Z,14.48
2023-04-18T07:03:41.350Z,15.13
2023-04-18T07:06:10.427Z,14.38
2023-04-18T07:08:37.451Z,13.75
2023-04-18T07:11:04.247Z,16.27
2023-04-18T07:13:30.970Z,13.50
2023-04-18T07:15:57.799Z,14.15
2023-04-18T07:18:36.786Z,15.43
2023-04-18T07:21:07.275Z,14.38
2023-04-18T07:23:34.383Z,12.52
2023-04-18T07:26:02.614Z,12.98
2023-04-18T07:28:31.132Z,12.70
2023-04-18T07:30:58.463Z,12.55
2023-04-18T07:33:25.581Z,13.93
2023-04-18T07:35:53.028Z,14.38
2023-04-18T07:38:19.953Z,11.63
2023-04-18T07:40:46.630Z,11.43
2023-04-18T07:43:13.352Z,11.18
2023-04-18T07:45:42.938Z,12.30
2023-04-18T07:48:09.652Z,11.20
2023-04-18T07:50:36.318Z,10.93
2023-04-18T07:53:04.031Z,10.50
2023-04-18T07:55:30.658Z,11.95
2023-04-18T07:57:57.402Z,11.15
2023-04-18T08:00:24.618Z,10.38
2023-04-18T08:02:51.382Z,12.32
2023-04-18T08:05:21.092Z,12.18
2023-04-18T08:07:47.888Z,11.60
2023-04-18T08:10:14.597Z,10.38
2023-04-18T08:12:41.352Z,13.07
2023-04-18T08:15:08.680Z,12.48
2023-04-18T08:17:35.817Z,10.85
2023-04-18T08:20:07.137Z,12.32
2023-04-18T08:22:33.918Z,11.48
2023-04-18T08:25:04.859Z,12.05
2023-04-18T08:27:32.638Z,11.55
2023-04-18T08:30:00.421Z,10.75
2023-04-18T08:32:27.199Z,12.73
2023-04-18T08:34:53.894Z,11.15
2023-04-18T08:37:20.703Z,10.32
2023-04-18T08:39:47.449Z,9.60
2023-04-18T08:42:19.056Z,11.90
2023-04-18T08:44:47.233Z,9.45
2023-04-18T08:47:14.690Z,10.60
2023-04-18T08:49:42.130Z,8.90
2023-04-18T08:52:14.185Z,8.90
2023-04-18T08:54:46.677Z,9.80
2023-04-18T08:57:16.601Z,10.20
2023-04-18T08:59:48.940Z,9.57
2023-04-18T09:02:18.027Z,8.93
2023-04-18T09:04:48.452Z,8.45
2023-04-18T09:07:16.669Z,10.85
2023-04-18T09:09:51.852Z,9.40
2023-04-18T09:14:57.887Z,9.93
2023-04-18T09:17:32.781Z,9.60
2023-04-18T09:20:00.303Z,9.13
2023-04-18T09:22:43.296Z,8.80
2023-04-18T09:25:09.986Z,8.25
2023-04-18T09:27:37.350Z,6.82
2023-04-18T09:30:04.387Z,7.10
2023-04-18T09:32:31.176Z,8.82
2023-04-18T09:35:04.653Z,6.85
2023-04-18T09:37:31.750Z,7.15
2023-04-18T09:39:58.469Z,8.45
2023-04-18T09:42:27.441Z,8.25
2023-04-18T09:45:06.923Z,6.63
2023-04-18T09:47:35.100Z,6.45
2023-04-18T09:50:07.313Z,7.20
2023-04-18T09:52:39.135Z,7.40
2023-04-18T09:55:08.603Z,6.47
2023-04-18T09:57:36.873Z,6.47
2023-04-18T10:00:23.995Z,8.02
2023-04-18T10:03:08.096Z,7.60
2023-04-18T10:05:36.702Z,7.38
2023-04-18T10:08:04.402Z,6.88
2023-04-18T10:10:32.332Z,7.10
2023-04-18T10:13:01.394Z,6.07
2023-04-18T10:15:29.724Z,5.82
2023-04-18T10:18:04.486Z,6.25
2023-04-18T10:20:35.189Z,5.32
2023-04-18T10:23:31.167Z,5.47
2023-04-18T10:25:58.952Z,5.80
2023-04-18T10:28:27.384Z,5.07
2023-04-18T10:30:56.461Z,5.20
2023-04-18T10:33:30.857Z,6.05
2023-04-18T10:36:13.773Z,4.60
2023-04-18T10:38:45.618Z,6.07
2023-04-18T10:41:21.216Z,5.43
2023-04-18T10:44:15.609Z,4.88
2023-04-18T10:46:53.004Z,6.30
2023-04-18T10:49:25.833Z,5.25
2023-04-18T10:51:58.824Z,5.00
2023-04-18T10:54:51.399Z,4.72
2023-04-18T10:57:18.133Z,4.97
2023-04-18T10:59:49.394Z,5.50
2023-04-18T11:02:30.400Z,4.60
2023-04-18T11:05:02.245Z,4.75
2023-04-18T11:07:42.151Z,5.20
2023-04-18T11:10:09.710Z,5.28
2023-04-18T11:12:39.060Z,4.80
2023-04-18T11:15:22.950Z,4.40
2023-04-18T11:17:59.900Z,5.18
2023-04-18T11:20:27.022Z,4.30
2023-04-18T11:22:54.721Z,4.35
2023-04-18T11:25:28.062Z,4.50
2023-04-18T11:27:58.124Z,4.40
2023-04-18T11:30:25.000Z,4.28
2023-04-18T11:32:52.092Z,4.10
2023-04-18T11:35:18.893Z,5.07
2023-04-18T11:37:45.813Z,4.85
2023-04-18T11:40:13.827Z,4.25
2023-04-18T11:42:41.325Z,4.28
2023-04-18T11:45:15.283Z,4.10
2023-04-18T11:47:43.208Z,4.30
2023-04-18T11:50:11.866Z,3.90
2023-04-18T11:52:41.082Z,3.85
2023-04-18T11:55:14.897Z,3.60
2023-04-18T11:57:41.931Z,5.70
2023-04-18T12:00:12.074Z,4.25
2023-04-18T12:02:43.300Z,4.38
2023-04-18T12:05:15.060Z,3.70
2023-04-18T12:07:45.051Z,3.75
2023-04-18T12:10:25.571Z,3.97
2023-04-18T12:12:59.710Z,4.28
2023-04-18T12:15:28.528Z,3.80
2023-04-18T12:18:03.740Z,3.85
2023-04-18T12:23:07.655Z,4.15
2023-04-18T12:25:35.075Z,4.18
2023-04-18T12:28:06.898Z,3.75
2023-04-18T12:30:37.355Z,3.90
2023-04-18T12:33:11.116Z,3.95
2023-04-18T12:35:38.141Z,4.55
2023-04-18T12:38:05.790Z,3.78
2023-04-18T12:40:32.501Z,4.30
2023-04-18T12:43:00.499Z,4.00
2023-04-18T12:45:29.009Z,3.78
2023-04-18T12:48:00.343Z,4.03
2023-04-18T12:50:27.685Z,5.35
2023-04-18T12:52:57.021Z,4.57
2023-04-18T12:55:24.120Z,4.82
2023-04-18T12:57:54.411Z,3.92
2023-04-18T13:00:23.437Z,3.92
2023-04-18T13:02:52.301Z,4.55
2023-04-18T13:05:21.498Z,5.35
2023-04-18T13:07:49.753Z,4.45
2023-04-18T13:10:21.587Z,4.47
2023-04-18T13:12:50.139Z,4.72
2023-04-18T13:15:22.775Z,4.40
2023-04-18T13:17:49.911Z,4.10
2023-04-18T13:20:16.650Z,4.47
2023-04-18T13:22:44.468Z,4.30
2023-04-18T13:25:11.805Z,4.63
2023-04-18T13:27:41.579Z,5.22
2023-04-18T13:30:10.608Z,6.78
2023-04-18T13:32:39.069Z,4.85
2023-04-18T13:35:08.243Z,4.72
2023-04-18T13:37:35.531Z,4.55
2023-04-18T13:40:05.237Z,4.88
2023-04-18T13:42:32.352Z,5.53
2023-04-18T13:45:00.066Z,5.20
2023-04-18T13:47:26.979Z,5.55
2023-04-18T13:49:53.780Z,5.30
2023-04-18T13:52:20.512Z,5.25
2023-04-18T13:54:50.353Z,5.90
2023-04-18T13:57:17.031Z,6.10
2023-04-18T13:59:43.845Z,7.25
2023-04-18T14:02:10.899Z,7.38
2023-04-18T14:04:37.828Z,6.82
2023-04-18T14:07:06.174Z,7.80
2023-04-18T14:09:33.055Z,7.47
2023-04-18T14:11:59.848Z,8.45
2023-04-18T14:14:26.496Z,7.05
2023-04-18T14:16:53.936Z,7.70
2023-04-18T14:19:20.925Z,9.93
2023-04-18T14:22:03.085Z,8.13
2023-04-18T14:24:30.039Z,9.82
2023-04-18T14:26:59.761Z,10.25
2023-04-18T14:29:27.774Z,10.82
2023-04-18T14:31:54.619Z,11.23
2023-04-18T14:34:21.257Z,9.30
2023-04-18T14:36:48.084Z,9.32
2023-04-18T14:39:15.214Z,9.18
2023-04-18T14:41:41.886Z,10.15
2023-04-18T14:44:08.681Z,8.80
2023-04-18T14:46:35.600Z,9.38
2023-04-18T14:49:02.393Z,8.88
2023-04-18T14:51:29.100Z,8.40
2023-04-18T14:53:55.851Z,8.32
2023-04-18T14:56:24.169Z,8.07
2023-04-18T14:58:50.878Z,7.80
2023-04-18T15:01:17.636Z,7.55
2023-04-18T15:03:45.423Z,7.32
2023-04-18T15:06:12.536Z,7.40
2023-04-18T15:08:39.331Z,8.38
2023-04-18T15:11:09.404Z,7.88
2023-04-18T15:13:36.554Z,8.07
2023-04-18T15:16:03.592Z,7.25
2023-04-18T15:18:30.314Z,7.32
2023-04-18T15:21:00.192Z,11.68
2023-04-18T15:23:27.462Z,7.88
2023-04-18T15:25:54.181Z,8.85
2023-04-18T15:28:20.841Z,8.10
2023-04-18T15:30:47.565Z,8.65
2023-04-18T15:33:15.540Z,9.95
2023-04-18T15:35:42.232Z,8.85
2023-04-18T15:38:08.815Z,8.77
2023-04-18T15:40:36.513Z,9.43
2023-04-18T15:43:04.009Z,9.55
2023-04-18T15:45:31.250Z,10.45
2023-04-18T15:47:58.538Z,9.20
2023-04-18T15:50:25.906Z,10.00
2023-04-18T15:52:52.637Z,9.05
2023-04-18T15:55:19.613Z,10.95
2023-04-18T15:57:46.769Z,10.27
2023-04-18T16:00:17.651Z,9.77
2023-04-18T16:02:45.838Z,9.07
2023-04-18T16:05:13.688Z,11.13
2023-04-18T16:07:41.306Z,9.45
2023-04-18T16:10:10.550Z,8.80
2023-04-18T16:12:38.252Z,8.45
2023-04-18T16:15:06.939Z,8.70
2023-04-18T16:17:33.814Z,9.40
2023-04-18T16:20:00.511Z,9.98
2023-04-18T16:22:27.274Z,9.13
2023-04-18T16:24:54.256Z,10.80
2023-04-18T16:27:21.177Z,10.43
2023-04-18T16:29:47.960Z,9.38
2023-04-18T16:32:14.671Z,9.30
2023-04-18T16:34:41.324Z,9.95
2023-04-18T16:37:08.016Z,11.57
2023-04-18T16:39:36.515Z,9.27
2023-04-18T16:42:03.771Z,11.10
2023-04-18T16:44:33.075Z,8.68
2023-04-18T16:47:00.080Z,7.90
2023-04-18T16:49:26.936Z,9.82
2023-04-18T16:51:53.562Z,7.80
2023-04-18T16:54:20.292Z,8.05
2023-04-18T16:56:47.330Z,8.70
2023-04-18T16:59:14.134Z,7.88
2023-04-18T17:01:40.777Z,8.68
2023-04-18T17:04:07.529Z,7.30
2023-04-18T17:06:35.305Z,8.77
2023-04-18T17:09:02.064Z,10.90
2023-04-18T17:11:28.757Z,8.63
2023-04-18T17:13:56.267Z,8.75
2023-04-18T17:16:23.013Z,9.95
2023-04-18T17:18:49.763Z,9.77
2023-04-18T17:21:16.453Z,9.48
2023-04-18T17:23:43.112Z,7.68
2023-04-18T17:26:10.177Z,9.73
2023-04-18T17:28:37.050Z,9.90
2023-04-18T17:31:04.424Z,11.35
2023-04-18T17:33:31.599Z,8.20
2023-04-18T17:35:58.654Z,11.73
2023-04-18T17:38:25.389Z,10.25
2023-04-18T17:41:01.965Z,11.23
2023-04-18T17:43:28.906Z,9.27
2023-04-18T17:45:56.831Z,8.50
2023-04-18T17:48:23.691Z,8.63
2023-04-18T17:50:50.427Z,11.85
2023-04-18T17:53:18.135Z,10.77
2023-04-18T17:55:46.721Z,9.45
2023-04-18T17:58:13.523Z,10.85
2023-04-18T18:00:40.238Z,10.25
2023-04-18T18:03:09.248Z,11.38
2023-04-18T18:05:36.410Z,10.38
2023-04-18T18:08:03.223Z,13.57
2023-04-18T18:10:30.399Z,11.75
2023-04-18T18:12:57.843Z,12.35
2023-04-18T18:15:24.849Z,10.20
2023-04-18T18:17:52.082Z,15.05
2023-04-18T18:20:33.191Z,12.82
2023-04-18T18:22:59.913Z,11.05
2023-04-18T18:25:27.478Z,15.20
2023-04-18T18:27:54.501Z,14.00
2023-04-18T18:30:26.527Z,11.98
2023-04-18T18:33:02.411Z,26.88
2023-04-18T18:35:31.404Z,11.77
2023-04-18T18:38:01.076Z,13.02
2023-04-18T18:40:27.793Z,13.77
2023-04-18T18:42:57.473Z,11.23
2023-04-18T18:45:30.046Z,15.95
2023-04-18T18:47:57.065Z,14.50
2023-04-18T18:50:24.112Z,15.70
2023-04-18T18:52:50.815Z,11.95
2023-04-18T18:55:17.680Z,10.35
2023-04-18T18:57:44.581Z,12.75
2023-04-18T19:00:11.926Z,11.30
2023-04-18T19:02:39.559Z,12.52
2023-04-18T19:05:07.062Z,13.60
2023-04-18T19:07:33.788Z,12.00
2023-04-18T19:10:01.658Z,14.27
2023-04-18T19:12:29.101Z,11.85
2023-04-18T19:14:55.927Z,11.35
2023-04-18T19:17:24.499Z,11.93
2023-04-18T19:19:52.388Z,11.75
2023-04-18T19:22:19.209Z,11.70
2023-04-18T19:24:45.891Z,12.20
2023-04-18T19:27:12.512Z,12.85
2023-04-18T19:29:39.663Z,11.65
2023-04-18T19:32:06.445Z,12.68
2023-04-18T19:34:33.222Z,11.70
2023-04-18T19:37:01.144Z,12.95
2023-04-18T19:39:28.165Z,18.58
2023-04-18T19:41:54.861Z,16.90
2023-04-18T19:44:22.726Z,13.75
2023-04-18T19:46:49.484Z,15.65
2023-04-18T19:49:16.418Z,17.55
2023-04-18T19:51:43.181Z,16.63
2023-04-18T19:54:09.858Z,14.88
2023-04-18T19:56:36.504Z,16.55
2023-04-18T19:59:05.715Z,14.25
2023-04-18T20:01:32.473Z,13.60
2023-04-18T20:04:00.039Z,12.30
2023-04-18T20:06:27.169Z,12.82
2023-04-18T20:08:54.130Z,12.15
2023-04-18T20:11:22.018Z,13.82
2023-04-18T20:13:49.907Z,15.60
2023-04-18T20:16:17.227Z,13.98
2023-04-18T20:18:47.860Z,10.23
2023-04-18T20:21:14.873Z,10.65
2023-04-18T20:23:42.600Z,12.00
2023-04-18T20:26:09.299Z,14.02
2023-04-18T20:28:36.399Z,12.77
2023-04-18T20:31:03.393Z,13.23
2023-04-18T20:33:30.235Z,10.20
2023-04-18T20:35:58.659Z,14.50
2023-04-18T20:38:29.312Z,12.60
2023-04-18T20:40:58.017Z,12.43
2023-04-18T20:43:24.833Z,11.43
2023-04-18T20:45:51.696Z,11.45
2023-04-18T20:48:18.929Z,11.40
2023-04-18T20:50:50.940Z,12.13
2023-04-18T20:53:21.365Z,13.07
2023-04-18T20:55:48.857Z,11.00
2023-04-18T20:58:15.677Z,12.27
2023-04-18T21:00:48.703Z,11.70
2023-04-18T21:03:16.855Z,11.05
2023-04-18T21:05:44.692Z,12.38
2023-04-18T21:08:11.408Z,11.18
2023-04-18T21:10:38.072Z,10.55
2023-04-18T21:13:04.891Z,12.00
2023-04-18T21:15:31.659Z,10.90
2023-04-18T21:17:58.455Z,9.98
2023-04-18T21:20:25.320Z,10.65
2023-04-18T21:22:51.873Z,9.45
2023-04-18T21:25:20.332Z,11.90
2023-04-18T21:27:47.128Z,9.25
2023-04-18T21:30:14.020Z,10.23
2023-04-18T21:32:40.978Z,11.27
2023-04-18T21:35:08.366Z,8.80
2023-04-18T21:37:35.171Z,10.40
2023-04-18T21:40:01.934Z,11.40
2023-04-18T21:42:28.575Z,8.77
2023-04-18T21:44:55.271Z,9.18
2023-04-18T21:47:22.054Z,9.77
2023-04-18T21:49:49.423Z,8.55
2023-04-18T21:52:16.245Z,8.57
2023-04-18T21:54:42.915Z,7.97
2023-04-18T21:57:09.648Z,9.43
2023-04-18T21:59:36.396Z,7.88
2023-04-18T22:02:03.169Z,9.45
2023-04-18T22:04:30.135Z,8.50
2023-04-18T22:06:57.406Z,9.10
2023-04-18T22:09:23.993Z,9.90
2023-04-18T22:11:51.789Z,9.15
2023-04-18T22:14:19.860Z,7.75
2023-04-18T22:16:46.580Z,8.30
2023-04-18T22:19:14.064Z,10.45
2023-04-18T22:21:40.869Z,8.68
2023-04-18T22:24:08.632Z,9.27
2023-04-18T22:26:35.202Z,9.30
2023-04-18T22:29:01.973Z,9.18
2023-04-18T22:31:30.280Z,7.30
2023-04-18T22:33:56.860Z,7.03
2023-04-18T22:36:23.637Z,7.20
2023-04-18T22:38:50.327Z,7.78
2023-04-18T22:41:16.907Z,6.57
2023-04-18T22:43:43.814Z,7.78
2023-04-18T22:46:10.754Z,8.93
2023-04-18T22:48:38.422Z,8.80
2023-04-18T22:51:05.187Z,7.05
2023-04-18T22:53:32.466Z,7.22
2023-04-18T22:55:59.260Z,7.25
2023-04-18T22:58:26.124Z,6.40
2023-04-18T23:00:52.664Z,8.35
2023-04-18T23:03:19.699Z,7.15
2023-04-18T23:05:46.434Z,6.45
2023-04-18T23:08:13.136Z,6.03
2023-04-18T23:10:39.886Z,7.00
2023-04-18T23:13:06.625Z,7.10
2023-04-18T23:15:33.301Z,5.60
2023-04-18T23:18:00.061Z,5.88
2023-04-18T23:20:26.860Z,5.45
2023-04-18T23:22:55.227Z,5.50
2023-04-18T23:25:22.067Z,6.35
2023-04-18T23:27:48.669Z,6.40
2023-04-18T23:30:15.460Z,6.28
2023-04-18T23:32:42.219Z,5.85
2023-04-18T23:35:10.429Z,5.43
2023-04-18T23:37:37.065Z,5.68
2023-04-18T23:40:06.511Z,5.93
2023-04-18T23:42:34.775Z,6.07
2023-04-18T23:45:03.326Z,6.25
2023-04-18T23:47:30.386Z,5.45
2023-04-18T23:49:57.196Z,7.13
2023-04-18T23:52:23.957Z,5.05
2023-04-18T23:54:50.666Z,5.80
2023-04-18T23:57:17.338Z,6.07
2023-04-18T23:59:44.110Z,6.13
